sensor_id;sensor_type;location;lat;lon;timestamp;pressure;altitude;pressure_sealevel;temperature;humidity
28004;BME280;15330;51.234;6.754;2023-05-27T00:01:57;102267.16;;;12.93;78.08
28004;BME280;15330;51.234;6.754;2023-05-27T00:04:22;102264.34;;;12.84;78.62
28004;BME280;15330;51.234;6.754;2023-05-27T00:06:48;102258.13;;;12.84;78.49
28004;BME280;15330;51.234;6.754;2023-05-27T00:09:13;102261.91;;;12.91;78.18
28004;BME280;15330;51.234;6.754;2023-05-27T00:11:40;102258.25;;;12.82;78.54
28004;BME280;15330;51.234;6.754;2023-05-27T00:14:05;102257.28;;;12.83;78.35
28004;BME280;15330;51.234;6.754;2023-05-27T00:16:30;102257.13;;;12.95;78.38
28004;BME280;15330;51.234;6.754;2023-05-27T00:18:57;102245.69;;;12.73;78.63
28004;BME280;15330;51.234;6.754;2023-05-27T00:21:22;102253.75;;;12.54;79.54
28004;BME280;15330;51.234;6.754;2023-05-27T00:23:51;102246.25;;;12.48;79.95
28004;BME280;15330;51.234;6.754;2023-05-27T00:26:17;102244.41;;;12.48;80.16
28004;BME280;15330;51.234;6.754;2023-05-27T00:28:43;102248.78;;;12.40;80.42
28004;BME280;15330;51.234;6.754;2023-05-27T00:31:08;102247.50;;;12.25;80.71
28004;BME280;15330;51.234;6.754;2023-05-27T00:33:34;102244.53;;;12.28;81.00
28004;BME280;15330;51.234;6.754;2023-05-27T00:35:59;102238.03;;;12.40;79.91
28004;BME280;15330;51.234;6.754;2023-05-27T00:38:24;102242.44;;;12.60;79.72
28004;BME280;15330;51.234;6.754;2023-05-27T00:40:52;102243.69;;;12.46;80.21
28004;BME280;15330;51.234;6.754;2023-05-27T00:43:18;102253.03;;;12.33;80.36
28004;BME280;15330;51.234;6.754;2023-05-27T00:45:44;102245.31;;;11.99;81.49
28004;BME280;15330;51.234;6.754;2023-05-27T00:48:09;102249.63;;;12.31;80.91
28004;BME280;15330;51.234;6.754;2023-05-27T00:50:35;102254.84;;;12.23;81.18
28004;BME280;15330;51.234;6.754;2023-05-27T00:53:01;102249.59;;;12.11;81.81
28004;BME280;15330;51.234;6.754;2023-05-27T00:55:27;102247.31;;;12.07;81.55
28004;BME280;15330;51.234;6.754;2023-05-27T00:57:52;102250.88;;;12.17;80.96
28004;BME280;15330;51.234;6.754;2023-05-27T01:00:20;102243.75;;;11.87;81.85
28004;BME280;15330;51.234;6.754;2023-05-27T01:02:46;102246.25;;;11.79;82.65
28004;BME280;15330;51.234;6.754;2023-05-27T01:05:14;102241.41;;;11.73;82.80
28004;BME280;15330;51.234;6.754;2023-05-27T01:10:41;102230.06;;;11.90;82.10
28004;BME280;15330;51.234;6.754;2023-05-27T01:13:13;102242.38;;;11.93;82.20
28004;BME280;15330;51.234;6.754;2023-05-27T01:15:41;102234.81;;;11.77;83.31
28004;BME280;15330;51.234;6.754;2023-05-27T01:18:09;102244.47;;;11.99;82.30
28004;BME280;15330;51.234;6.754;2023-05-27T01:20:36;102234.41;;;11.82;83.03
28004;BME280;15330;51.234;6.754;2023-05-27T01:23:07;102233.47;;;11.62;84.08
28004;BME280;15330;51.234;6.754;2023-05-27T01:25:33;102228.84;;;11.73;83.49
28004;BME280;15330;51.234;6.754;2023-05-27T01:27:58;102222.00;;;11.50;84.85
28004;BME280;15330;51.234;6.754;2023-05-27T01:30:23;102218.72;;;11.77;83.65
28004;BME280;15330;51.234;6.754;2023-05-27T01:32:57;102223.69;;;11.51;84.59
28004;BME280;15330;51.234;6.754;2023-05-27T01:35:27;102218.47;;;11.80;83.70
28004;BME280;15330;51.234;6.754;2023-05-27T01:37:56;102216.44;;;11.72;83.62
28004;BME280;15330;51.234;6.754;2023-05-27T01:40:24;102219.88;;;11.54;84.85
28004;BME280;15330;51.234;6.754;2023-05-27T01:42:50;102216.44;;;11.12;87.00
28004;BME280;15330;51.234;6.754;2023-05-27T01:45:16;102225.06;;;11.46;85.64
28004;BME280;15330;51.234;6.754;2023-05-27T01:47:43;102217.72;;;11.38;85.43
28004;BME280;15330;51.234;6.754;2023-05-27T01:50:10;102216.09;;;11.26;86.28
28004;BME280;15330;51.234;6.754;2023-05-27T01:52:35;102214.66;;;11.22;86.46
28004;BME280;15330;51.234;6.754;2023-05-27T01:55:01;102215.97;;;11.27;86.10
28004;BME280;15330;51.234;6.754;2023-05-27T01:57:29;102223.63;;;10.90;87.25
28004;BME280;15330;51.234;6.754;2023-05-27T01:59:54;102222.25;;;10.54;89.95
28004;BME280;15330;51.234;6.754;2023-05-27T02:02:19;102229.38;;;10.65;89.31
28004;BME280;15330;51.234;6.754;2023-05-27T02:04:45;102218.69;;;11.07;87.75
28004;BME280;15330;51.234;6.754;2023-05-27T02:07:10;102221.41;;;11.16;87.18
28004;BME280;15330;51.234;6.754;2023-05-27T02:09:36;102217.00;;;11.36;86.16
28004;BME280;15330;51.234;6.754;2023-05-27T02:12:02;102216.13;;;10.84;88.36
28004;BME280;15330;51.234;6.754;2023-05-27T02:14:28;102219.44;;;11.18;87.42
28004;BME280;15330;51.234;6.754;2023-05-27T02:16:53;102221.34;;;11.07;87.46
28004;BME280;15330;51.234;6.754;2023-05-27T02:19:20;102218.50;;;10.98;87.56
28004;BME280;15330;51.234;6.754;2023-05-27T02:21:45;102214.56;;;11.02;87.75
28004;BME280;15330;51.234;6.754;2023-05-27T02:24:11;102225.81;;;10.96;88.08
28004;BME280;15330;51.234;6.754;2023-05-27T02:26:36;102226.59;;;10.87;88.38
28004;BME280;15330;51.234;6.754;2023-05-27T02:29:02;102216.38;;;10.60;89.90
28004;BME280;15330;51.234;6.754;2023-05-27T02:31:27;102216.00;;;10.65;90.39
28004;BME280;15330;51.234;6.754;2023-05-27T02:33:52;102216.72;;;10.67;89.90
28004;BME280;15330;51.234;6.754;2023-05-27T02:36:18;102213.31;;;10.65;90.26
28004;BME280;15330;51.234;6.754;2023-05-27T02:38:46;102222.28;;;10.75;89.94
28004;BME280;15330;51.234;6.754;2023-05-27T02:41:11;102211.69;;;10.94;88.95
28004;BME280;15330;51.234;6.754;2023-05-27T02:43:36;102215.94;;;10.76;90.09
28004;BME280;15330;51.234;6.754;2023-05-27T02:46:02;102215.94;;;10.76;90.13
28004;BME280;15330;51.234;6.754;2023-05-27T02:48:27;102219.47;;;10.77;89.88
28004;BME280;15330;51.234;6.754;2023-05-27T02:50:53;102220.63;;;10.84;89.78
28004;BME280;15330;51.234;6.754;2023-05-27T02:53:18;102225.63;;;10.88;89.42
28004;BME280;15330;51.234;6.754;2023-05-27T02:55:43;102212.34;;;10.66;90.62
28004;BME280;15330;51.234;6.754;2023-05-27T02:58:09;102220.75;;;10.82;89.62
28004;BME280;15330;51.234;6.754;2023-05-27T03:00:34;102216.06;;;10.75;90.21
28004;BME280;15330;51.234;6.754;2023-05-27T03:03:00;102211.16;;;11.00;89.09
28004;BME280;15330;51.234;6.754;2023-05-27T03:05:25;102211.88;;;11.02;88.58
28004;BME280;15330;51.234;6.754;2023-05-27T03:07:51;102207.25;;;11.04;88.41
28004;BME280;15330;51.234;6.754;2023-05-27T03:10:16;102200.44;;;11.00;88.73
28004;BME280;15330;51.234;6.754;2023-05-27T03:12:42;102208.22;;;11.03;88.98
28004;BME280;15330;51.234;6.754;2023-05-27T03:15:07;102213.75;;;10.70;90.09
28004;BME280;15330;51.234;6.754;2023-05-27T03:17:37;102218.28;;;10.90;89.57
28004;BME280;15330;51.234;6.754;2023-05-27T03:20:02;102207.50;;;10.60;90.39
28004;BME280;15330;51.234;6.754;2023-05-27T03:22:29;102205.66;;;10.60;90.97
28004;BME280;15330;51.234;6.754;2023-05-27T03:24:55;102209.59;;;10.56;90.89
28004;BME280;15330;51.234;6.754;2023-05-27T03:27:20;102206.94;;;10.77;90.02
28004;BME280;15330;51.234;6.754;2023-05-27T03:29:47;102202.81;;;10.73;90.01
28004;BME280;15330;51.234;6.754;2023-05-27T03:32:13;102203.47;;;10.86;89.55
28004;BME280;15330;51.234;6.754;2023-05-27T03:34:38;102197.28;;;10.65;90.12
28004;BME280;15330;51.234;6.754;2023-05-27T03:37:04;102196.97;;;10.26;92.92
28004;BME280;15330;51.234;6.754;2023-05-27T03:39:29;102197.78;;;10.59;91.63
28004;BME280;15330;51.234;6.754;2023-05-27T03:41:55;102198.28;;;10.53;91.99
28004;BME280;15330;51.234;6.754;2023-05-27T03:44:21;102198.78;;;10.58;91.54
28004;BME280;15330;51.234;6.754;2023-05-27T03:46:46;102195.19;;;10.69;90.91
28004;BME280;15330;51.234;6.754;2023-05-27T03:49:12;102186.81;;;10.62;91.38
28004;BME280;15330;51.234;6.754;2023-05-27T03:51:37;102187.22;;;10.78;90.47
28004;BME280;15330;51.234;6.754;2023-05-27T03:54:03;102194.19;;;10.70;90.97
28004;BME280;15330;51.234;6.754;2023-05-27T03:56:28;102187.78;;;10.82;90.06
28004;BME280;15330;51.234;6.754;2023-05-27T03:58:53;102182.06;;;10.86;90.18
28004;BME280;15330;51.234;6.754;2023-05-27T04:01:19;102182.84;;;10.98;89.16
28004;BME280;15330;51.234;6.754;2023-05-27T04:03:45;102186.41;;;11.08;89.63
28004;BME280;15330;51.234;6.754;2023-05-27T04:06:11;102190.34;;;10.83;90.15
28004;BME280;15330;51.234;6.754;2023-05-27T04:08:36;102190.22;;;10.64;91.49
28004;BME280;15330;51.234;6.754;2023-05-27T04:11:04;102184.25;;;11.32;89.24
28004;BME280;15330;51.234;6.754;2023-05-27T04:13:29;102189.72;;;11.00;90.13
28004;BME280;15330;51.234;6.754;2023-05-27T04:15:55;102195.44;;;11.37;88.50
28004;BME280;15330;51.234;6.754;2023-05-27T04:18:22;102196.78;;;11.32;88.29
28004;BME280;15330;51.234;6.754;2023-05-27T04:20:47;102191.31;;;11.33;87.75
28004;BME280;15330;51.234;6.754;2023-05-27T04:23:15;102184.59;;;11.39;88.11
28004;BME280;15330;51.234;6.754;2023-05-27T04:25:41;102193.00;;;11.34;88.59
28004;BME280;15330;51.234;6.754;2023-05-27T04:28:07;102190.97;;;11.48;87.92
28004;BME280;15330;51.234;6.754;2023-05-27T04:30:34;102194.34;;;11.50;87.80
28004;BME280;15330;51.234;6.754;2023-05-27T04:33:00;102191.38;;;11.53;87.72
28004;BME280;15330;51.234;6.754;2023-05-27T04:35:26;102195.84;;;11.73;86.63
28004;BME280;15330;51.234;6.754;2023-05-27T04:37:52;102197.81;;;11.71;86.64
28004;BME280;15330;51.234;6.754;2023-05-27T04:40:17;102200.72;;;11.58;87.33
28004;BME280;15330;51.234;6.754;2023-05-27T04:42:44;102197.84;;;11.40;88.33
28004;BME280;15330;51.234;6.754;2023-05-27T04:45:10;102190.38;;;11.14;88.87
28004;BME280;15330;51.234;6.754;2023-05-27T04:47:38;102190.56;;;11.22;89.15
28004;BME280;15330;51.234;6.754;2023-05-27T04:50:09;102188.75;;;11.32;89.53
28004;BME280;15330;51.234;6.754;2023-05-27T04:52:38;102184.94;;;11.25;89.94
28004;BME280;15330;51.234;6.754;2023-05-27T04:55:07;102187.91;;;11.62;88.56
28004;BME280;15330;51.234;6.754;2023-05-27T04:57:33;102190.13;;;11.57;88.02
28004;BME280;15330;51.234;6.754;2023-05-27T04:59:59;102191.00;;;11.57;87.80
28004;BME280;15330;51.234;6.754;2023-05-27T05:02:45;102191.16;;;11.65;87.21
28004;BME280;15330;51.234;6.754;2023-05-27T05:05:13;102189.84;;;11.50;88.91
28004;BME280;15330;51.234;6.754;2023-05-27T05:07:39;102191.00;;;11.57;88.82
28004;BME280;15330;51.234;6.754;2023-05-27T05:10:12;102189.53;;;11.44;89.39
28004;BME280;15330;51.234;6.754;2023-05-27T05:12:38;102179.31;;;11.68;88.07
28004;BME280;15330;51.234;6.754;2023-05-27T05:15:04;102189.72;;;11.92;87.14
28004;BME280;15330;51.234;6.754;2023-05-27T05:17:30;102192.66;;;11.89;86.96
28004;BME280;15330;51.234;6.754;2023-05-27T05:19:55;102188.53;;;11.75;87.69
28004;BME280;15330;51.234;6.754;2023-05-27T05:22:21;102193.25;;;11.92;87.33
28004;BME280;15330;51.234;6.754;2023-05-27T05:24:49;102189.03;;;12.09;86.56
28004;BME280;15330;51.234;6.754;2023-05-27T05:27:14;102184.47;;;11.90;86.63
28004;BME280;15330;51.234;6.754;2023-05-27T05:29:40;102185.19;;;11.83;87.49
28004;BME280;15330;51.234;6.754;2023-05-27T05:32:06;102173.50;;;11.63;88.20
28004;BME280;15330;51.234;6.754;2023-05-27T05:34:32;102179.84;;;12.02;87.27
28004;BME280;15330;51.234;6.754;2023-05-27T05:36:58;102183.22;;;12.62;87.57
28004;BME280;15330;51.234;6.754;2023-05-27T05:39:23;102180.81;;;12.68;84.86
28004;BME280;15330;51.234;6.754;2023-05-27T05:41:49;102177.09;;;12.88;85.25
28004;BME280;15330;51.234;6.754;2023-05-27T05:44:15;102167.88;;;13.01;81.99
28004;BME280;15330;51.234;6.754;2023-05-27T05:46:41;102180.28;;;13.11;82.42
28004;BME280;15330;51.234;6.754;2023-05-27T05:49:06;102179.50;;;13.48;81.34
28004;BME280;15330;51.234;6.754;2023-05-27T05:51:31;102178.28;;;13.87;79.10
28004;BME280;15330;51.234;6.754;2023-05-27T05:53:57;102168.84;;;14.37;77.85
28004;BME280;15330;51.234;6.754;2023-05-27T05:56:24;102175.28;;;14.26;76.63
28004;BME280;15330;51.234;6.754;2023-05-27T05:58:51;102171.56;;;13.91;78.53
28004;BME280;15330;51.234;6.754;2023-05-27T06:01:16;102169.34;;;13.69;77.85
28004;BME280;15330;51.234;6.754;2023-05-27T06:03:42;102169.69;;;14.37;77.10
28004;BME280;15330;51.234;6.754;2023-05-27T06:06:07;102176.25;;;14.52;76.94
28004;BME280;15330;51.234;6.754;2023-05-27T06:08:33;102179.78;;;14.53;75.97
28004;BME280;15330;51.234;6.754;2023-05-27T06:10:59;102167.97;;;14.97;75.24
28004;BME280;15330;51.234;6.754;2023-05-27T06:13:24;102177.53;;;15.18;74.51
28004;BME280;15330;51.234;6.754;2023-05-27T06:15:49;102178.13;;;15.03;73.47
28004;BME280;15330;51.234;6.754;2023-05-27T06:18:15;102176.00;;;14.89;74.24
28004;BME280;15330;51.234;6.754;2023-05-27T06:20:40;102171.94;;;14.59;75.63
28004;BME280;15330;51.234;6.754;2023-05-27T06:23:06;102170.91;;;15.04;74.54
28004;BME280;15330;51.234;6.754;2023-05-27T06:25:32;102170.47;;;14.91;74.13
28004;BME280;15330;51.234;6.754;2023-05-27T06:27:57;102166.28;;;14.96;73.39
28004;BME280;15330;51.234;6.754;2023-05-27T06:30:23;102176.28;;;14.78;74.08
28004;BME280;15330;51.234;6.754;2023-05-27T06:32:48;102171.72;;;15.30;73.05
28004;BME280;15330;51.234;6.754;2023-05-27T06:35:13;102167.97;;;15.23;72.44
28004;BME280;15330;51.234;6.754;2023-05-27T06:37:39;102163.56;;;15.14;73.23
28004;BME280;15330;51.234;6.754;2023-05-27T06:40:05;102160.59;;;15.33;72.33
28004;BME280;15330;51.234;6.754;2023-05-27T06:42:30;102154.72;;;15.38;74.14
28004;BME280;15330;51.234;6.754;2023-05-27T06:44:56;102152.72;;;15.82;72.65
28004;BME280;15330;51.234;6.754;2023-05-27T06:47:21;102141.78;;;16.00;71.00
28004;BME280;15330;51.234;6.754;2023-05-27T06:49:46;102148.72;;;16.02;69.62
28004;BME280;15330;51.234;6.754;2023-05-27T06:52:12;102152.69;;;15.74;72.13
28004;BME280;15330;51.234;6.754;2023-05-27T06:54:37;102147.06;;;16.74;69.75
28004;BME280;15330;51.234;6.754;2023-05-27T06:57:03;102154.69;;;16.71;70.75
28004;BME280;15330;51.234;6.754;2023-05-27T06:59:29;102147.44;;;16.71;68.02
28004;BME280;15330;51.234;6.754;2023-05-27T07:01:54;102136.28;;;17.30;69.67
28004;BME280;15330;51.234;6.754;2023-05-27T07:04:23;102141.59;;;17.07;67.78
28004;BME280;15330;51.234;6.754;2023-05-27T07:06:48;102149.41;;;16.53;67.31
28004;BME280;15330;51.234;6.754;2023-05-27T07:09:14;102141.22;;;17.18;67.84
28004;BME280;15330;51.234;6.754;2023-05-27T07:11:40;102129.22;;;17.59;67.14
28004;BME280;15330;51.234;6.754;2023-05-27T07:14:05;102131.38;;;16.62;66.38
28004;BME280;15330;51.234;6.754;2023-05-27T07:16:31;102120.50;;;16.94;65.21
28004;BME280;15330;51.234;6.754;2023-05-27T07:18:56;102124.63;;;17.68;64.93
28004;BME280;15330;51.234;6.754;2023-05-27T07:21:22;102116.50;;;17.29;63.62
28004;BME280;15330;51.234;6.754;2023-05-27T07:23:47;102122.56;;;16.84;65.91
28004;BME280;15330;51.234;6.754;2023-05-27T07:26:13;102125.78;;;17.74;64.73
28004;BME280;15330;51.234;6.754;2023-05-27T07:28:38;102118.50;;;18.65;64.00
28004;BME280;15330;51.234;6.754;2023-05-27T07:31:04;102123.34;;;18.70;62.07
28004;BME280;15330;51.234;6.754;2023-05-27T07:33:30;102119.34;;;18.43;64.60
28004;BME280;15330;51.234;6.754;2023-05-27T07:35:55;102122.06;;;18.66;62.05
28004;BME280;15330;51.234;6.754;2023-05-27T07:38:21;102113.47;;;18.92;62.49
28004;BME280;15330;51.234;6.754;2023-05-27T07:40:46;102110.53;;;19.52;62.12
28004;BME280;15330;51.234;6.754;2023-05-27T07:43:11;102114.28;;;19.22;60.46
28004;BME280;15330;51.234;6.754;2023-05-27T07:45:37;102111.34;;;19.67;60.03
28004;BME280;15330;51.234;6.754;2023-05-27T07:48:03;102113.44;;;19.87;59.25
28004;BME280;15330;51.234;6.754;2023-05-27T07:50:28;102112.50;;;20.37;58.45
28004;BME280;15330;51.234;6.754;2023-05-27T07:52:54;102113.94;;;19.75;56.90
28004;BME280;15330;51.234;6.754;2023-05-27T07:55:19;102101.00;;;20.63;57.99
28004;BME280;15330;51.234;6.754;2023-05-27T07:57:44;102100.63;;;21.00;57.21
28004;BME280;15330;51.234;6.754;2023-05-27T08:00:10;102097.78;;;21.15;55.93
28004;BME280;15330;51.234;6.754;2023-05-27T08:02:36;102101.34;;;21.15;56.24
28004;BME280;15330;51.234;6.754;2023-05-27T08:05:02;102100.56;;;19.74;56.67
28004;BME280;15330;51.234;6.754;2023-05-27T08:07:29;102093.53;;;20.22;59.69
28004;BME280;15330;51.234;6.754;2023-05-27T08:09:54;102083.81;;;21.24;55.81
28004;BME280;15330;51.234;6.754;2023-05-27T08:12:20;102079.69;;;20.66;54.99
28004;BME280;15330;51.234;6.754;2023-05-27T08:14:45;102075.66;;;21.24;55.97
28004;BME280;15330;51.234;6.754;2023-05-27T08:17:11;102071.59;;;21.14;53.61
28004;BME280;15330;51.234;6.754;2023-05-27T08:19:36;102069.44;;;21.44;55.68
28004;BME280;15330;51.234;6.754;2023-05-27T08:22:02;102067.78;;;21.08;54.10
28004;BME280;15330;51.234;6.754;2023-05-27T08:24:28;102070.41;;;21.97;54.41
28004;BME280;15330;51.234;6.754;2023-05-27T08:26:56;102070.44;;;22.23;51.93
28004;BME280;15330;51.234;6.754;2023-05-27T08:29:21;102057.63;;;21.97;51.98
28004;BME280;15330;51.234;6.754;2023-05-27T08:31:48;102054.09;;;22.04;52.01
28004;BME280;15330;51.234;6.754;2023-05-27T08:34:17;102059.59;;;21.43;54.13
28004;BME280;15330;51.234;6.754;2023-05-27T08:36:42;102057.72;;;19.19;56.71
28004;BME280;15330;51.234;6.754;2023-05-27T08:39:07;102051.38;;;20.54;58.73
28004;BME280;15330;51.234;6.754;2023-05-27T08:41:33;102052.00;;;22.39;52.75
28004;BME280;15330;51.234;6.754;2023-05-27T08:43:59;102044.81;;;22.70;52.87
28004;BME280;15330;51.234;6.754;2023-05-27T08:46:26;102038.34;;;22.58;50.57
28004;BME280;15330;51.234;6.754;2023-05-27T08:48:51;102044.06;;;22.11;51.85
28004;BME280;15330;51.234;6.754;2023-05-27T08:51:18;102034.56;;;22.59;53.77
28004;BME280;15330;51.234;6.754;2023-05-27T08:53:44;102036.72;;;22.18;50.92
28004;BME280;15330;51.234;6.754;2023-05-27T08:56:11;102032.56;;;23.06;52.22
28004;BME280;15330;51.234;6.754;2023-05-27T08:58:38;102027.56;;;23.03;50.96
28004;BME280;15330;51.234;6.754;2023-05-27T09:01:04;102025.97;;;23.27;50.16
28004;BME280;15330;51.234;6.754;2023-05-27T09:03:30;102030.63;;;22.42;51.21
28004;BME280;15330;51.234;6.754;2023-05-27T09:05:55;102020.94;;;21.06;53.18
28004;BME280;15330;51.234;6.754;2023-05-27T09:08:21;102016.91;;;22.75;51.56
28004;BME280;15330;51.234;6.754;2023-05-27T09:10:46;102006.69;;;22.44;50.85
28004;BME280;15330;51.234;6.754;2023-05-27T09:13:12;102005.81;;;22.57;50.85
28004;BME280;15330;51.234;6.754;2023-05-27T09:15:37;102000.03;;;20.72;54.06
28004;BME280;15330;51.234;6.754;2023-05-27T09:18:05;102002.78;;;21.20;54.43
28004;BME280;15330;51.234;6.754;2023-05-27T09:20:30;101998.50;;;22.44;53.40
28004;BME280;15330;51.234;6.754;2023-05-27T09:23:00;101986.03;;;22.75;50.60
28004;BME280;15330;51.234;6.754;2023-05-27T09:25:27;101988.44;;;22.51;51.21
28004;BME280;15330;51.234;6.754;2023-05-27T09:27:53;101998.78;;;23.00;49.56
28004;BME280;15330;51.234;6.754;2023-05-27T09:30:20;101993.94;;;22.31;50.71
28004;BME280;15330;51.234;6.754;2023-05-27T09:32:46;101985.44;;;22.66;50.34
28004;BME280;15330;51.234;6.754;2023-05-27T09:35:13;101983.56;;;23.24;49.41
28004;BME280;15330;51.234;6.754;2023-05-27T09:37:38;101988.34;;;23.35;49.14
28004;BME280;15330;51.234;6.754;2023-05-27T09:40:06;101975.91;;;22.30;49.77
28004;BME280;15330;51.234;6.754;2023-05-27T09:42:47;101980.16;;;21.19;51.26
28004;BME280;15330;51.234;6.754;2023-05-27T09:45:16;101975.47;;;21.87;51.39
28004;BME280;15330;51.234;6.754;2023-05-27T09:47:47;101971.91;;;21.74;51.74
28004;BME280;15330;51.234;6.754;2023-05-27T09:50:13;101974.75;;;22.64;50.63
28004;BME280;15330;51.234;6.754;2023-05-27T09:52:39;101973.19;;;22.95;50.00
28004;BME280;15330;51.234;6.754;2023-05-27T09:55:09;101963.84;;;22.64;51.13
28004;BME280;15330;51.234;6.754;2023-05-27T09:57:37;101967.03;;;22.48;51.29
28004;BME280;15330;51.234;6.754;2023-05-27T10:00:05;101953.03;;;22.96;49.23
28004;BME280;15330;51.234;6.754;2023-05-27T10:02:38;101956.16;;;23.37;49.63
28004;BME280;15330;51.234;6.754;2023-05-27T10:05:06;101955.16;;;23.32;48.30
28004;BME280;15330;51.234;6.754;2023-05-27T10:07:37;101953.44;;;22.22;50.20
28004;BME280;15330;51.234;6.754;2023-05-27T10:10:05;101949.97;;;23.24;49.38
28004;BME280;15330;51.234;6.754;2023-05-27T10:12:32;101948.88;;;23.63;47.78
28004;BME280;15330;51.234;6.754;2023-05-27T10:14:57;101939.06;;;24.48;45.35
28004;BME280;15330;51.234;6.754;2023-05-27T10:17:23;101942.03;;;23.54;45.68
28004;BME280;15330;51.234;6.754;2023-05-27T10:19:53;101931.78;;;23.42;45.79
28004;BME280;15330;51.234;6.754;2023-05-27T10:22:21;101932.09;;;22.90;45.95
28004;BME280;15330;51.234;6.754;2023-05-27T10:24:47;101930.78;;;22.99;45.22
28004;BME280;15330;51.234;6.754;2023-05-27T10:27:18;101920.06;;;22.97;44.57
28004;BME280;15330;51.234;6.754;2023-05-27T10:29:43;101925.19;;;23.82;43.63
28004;BME280;15330;51.234;6.754;2023-05-27T10:32:09;101920.44;;;23.95;43.32
28004;BME280;15330;51.234;6.754;2023-05-27T10:34:41;101931.44;;;23.64;44.49
28004;BME280;15330;51.234;6.754;2023-05-27T10:37:07;101915.19;;;22.61;45.40
28004;BME280;15330;51.234;6.754;2023-05-27T10:39:33;101923.38;;;23.37;43.12
28004;BME280;15330;51.234;6.754;2023-05-27T10:41:58;101920.59;;;23.51;44.67
28004;BME280;15330;51.234;6.754;2023-05-27T10:44:33;101915.56;;;22.65;44.55
28004;BME280;15330;51.234;6.754;2023-05-27T10:47:03;101914.81;;;23.65;44.46
28004;BME280;15330;51.234;6.754;2023-05-27T10:49:35;101909.22;;;22.84;45.58
28004;BME280;15330;51.234;6.754;2023-05-27T10:52:13;101890.59;;;22.68;43.98
28004;BME280;15330;51.234;6.754;2023-05-27T10:54:40;101890.31;;;22.38;45.36
28004;BME280;15330;51.234;6.754;2023-05-27T10:57:06;101886.59;;;24.14;45.12
28004;BME280;15330;51.234;6.754;2023-05-27T11:02:13;101885.66;;;22.45;44.52
28004;BME280;15330;51.234;6.754;2023-05-27T11:04:38;101883.03;;;23.46;44.58
28004;BME280;15330;51.234;6.754;2023-05-27T11:07:04;101874.63;;;23.91;42.57
28004;BME280;15330;51.234;6.754;2023-05-27T11:09:30;101888.00;;;23.56;43.22
28004;BME280;15330;51.234;6.754;2023-05-27T11:11:56;101881.03;;;23.60;41.97
28004;BME280;15330;51.234;6.754;2023-05-27T11:14:25;101881.22;;;23.65;41.86
28004;BME280;15330;51.234;6.754;2023-05-27T11:16:50;101876.91;;;23.19;43.66
28004;BME280;15330;51.234;6.754;2023-05-27T11:19:17;101863.38;;;24.60;41.15
28004;BME280;15330;51.234;6.754;2023-05-27T11:21:44;101852.38;;;24.48;40.10
28004;BME280;15330;51.234;6.754;2023-05-27T11:24:17;101858.94;;;23.61;41.40
28004;BME280;15330;51.234;6.754;2023-05-27T11:26:47;101863.50;;;23.67;41.96
28004;BME280;15330;51.234;6.754;2023-05-27T11:29:15;101843.91;;;23.95;41.35
28004;BME280;15330;51.234;6.754;2023-05-27T11:31:46;101841.31;;;22.18;43.92
28004;BME280;15330;51.234;6.754;2023-05-27T11:34:16;101840.41;;;23.14;43.61
28004;BME280;15330;51.234;6.754;2023-05-27T11:36:45;101840.78;;;22.48;43.29
28004;BME280;15330;51.234;6.754;2023-05-27T11:39:14;101845.97;;;23.00;42.90
28004;BME280;15330;51.234;6.754;2023-05-27T11:41:52;101831.31;;;23.51;42.38
28004;BME280;15330;51.234;6.754;2023-05-27T11:44:19;101825.00;;;23.75;40.77
28004;BME280;15330;51.234;6.754;2023-05-27T11:46:46;101817.53;;;24.19;40.83
28004;BME280;15330;51.234;6.754;2023-05-27T11:49:15;101818.31;;;23.90;41.85
28004;BME280;15330;51.234;6.754;2023-05-27T11:51:44;101817.28;;;24.27;41.08
28004;BME280;15330;51.234;6.754;2023-05-27T11:54:24;101811.56;;;24.10;41.78
28004;BME280;15330;51.234;6.754;2023-05-27T11:56:51;101808.41;;;22.96;41.41
28004;BME280;15330;51.234;6.754;2023-05-27T11:59:18;101805.09;;;23.19;43.04
28004;BME280;15330;51.234;6.754;2023-05-27T12:01:44;101810.53;;;23.68;41.60
28004;BME280;15330;51.234;6.754;2023-05-27T12:04:09;101794.78;;;23.89;41.95
28004;BME280;15330;51.234;6.754;2023-05-27T12:06:35;101795.00;;;23.19;42.92
28004;BME280;15330;51.234;6.754;2023-05-27T12:09:03;101790.13;;;23.89;41.51
28004;BME280;15330;51.234;6.754;2023-05-27T12:11:29;101790.72;;;24.76;41.35
28004;BME280;15330;51.234;6.754;2023-05-27T12:13:54;101789.50;;;23.51;41.58
28004;BME280;15330;51.234;6.754;2023-05-27T12:16:20;101772.56;;;23.85;41.74
28004;BME280;15330;51.234;6.754;2023-05-27T12:18:45;101777.28;;;24.74;41.61
28004;BME280;15330;51.234;6.754;2023-05-27T12:21:11;101771.41;;;23.56;40.71
28004;BME280;15330;51.234;6.754;2023-05-27T12:23:36;101773.47;;;23.97;41.22
28004;BME280;15330;51.234;6.754;2023-05-27T12:26:02;101769.13;;;24.56;41.33
28004;BME280;15330;51.234;6.754;2023-05-27T12:28:27;101767.88;;;23.67;41.03
28004;BME280;15330;51.234;6.754;2023-05-27T12:30:53;101762.84;;;23.46;41.66
28004;BME280;15330;51.234;6.754;2023-05-27T12:33:18;101761.16;;;23.70;40.99
28004;BME280;15330;51.234;6.754;2023-05-27T12:35:43;101751.63;;;23.36;41.96
28004;BME280;15330;51.234;6.754;2023-05-27T12:38:09;101744.75;;;24.06;41.90
28004;BME280;15330;51.234;6.754;2023-05-27T12:40:34;101753.44;;;23.67;41.49
28004;BME280;15330;51.234;6.754;2023-05-27T12:43:00;101746.16;;;23.36;41.94
28004;BME280;15330;51.234;6.754;2023-05-27T12:45:25;101753.66;;;23.84;41.10
28004;BME280;15330;51.234;6.754;2023-05-27T12:47:52;101745.88;;;23.99;40.31
28004;BME280;15330;51.234;6.754;2023-05-27T12:50:17;101737.47;;;23.64;41.35
28004;BME280;15330;51.234;6.754;2023-05-27T12:52:43;101733.47;;;23.41;40.58